sensor_id;sensor_type;location;lat;lon;timestamp;P1;durP1;ratioP1;P2;durP2;ratioP2
13866;SDS011;7003;46.982;15.248;2022-07-10T00:00:12;1.63;;;1.52;;
13866;SDS011;7003;46.982;15.248;2022-07-10T00:02:44;1.88;;;1.70;;
13866;SDS011;7003;46.982;15.248;2022-07-10T00:05:13;1.63;;;1.17;;
13866;SDS011;7003;46.982;15.248;2022-07-10T00:07:43;1.20;;;1.10;;
13866;SDS011;7003;46.982;15.248;2022-07-10T00:10:10;1.40;;;1.30;;
13866;SDS011;7003;46.982;15.248;2022-07-10T00:12:38;2.15;;;1.38;;
13866;SDS011;7003;46.982;15.248;2022-07-10T00:15:05;1.23;;;1.13;;
13866;SDS011;7003;46.982;15.248;2022-07-10T00:17:36;2.78;;;1.70;;
13866;SDS011;7003;46.982;15.248;2022-07-10T00:20:06;6.70;;;1.60;;
13866;SDS011;7003;46.982;15.248;2022-07-10T00:22:35;2.35;;;1.20;;
13866;SDS011;7003;46.982;15.248;2022-07-10T00:25:08;1.70;;;1.60;;
13866;SDS011;7003;46.982;15.248;2022-07-10T00:27:39;2.10;;;1.33;;
13866;SDS011;7003;46.982;15.248;2022-07-10T00:30:07;0.98;;;0.98;;
13866;SDS011;7003;46.982;15.248;2022-07-10T00:32:37;4.47;;;1.55;;
13866;SDS011;7003;46.982;15.248;2022-07-10T00:35:08;1.80;;;1.60;;
13866;SDS011;7003;46.982;15.248;2022-07-10T00:37:42;1.70;;;1.40;;
13866;SDS011;7003;46.982;15.248;2022-07-10T00:40:09;2.00;;;1.77;;
13866;SDS011;7003;46.982;15.248;2022-07-10T00:42:39;1.67;;;1.58;;
13866;SDS011;7003;46.982;15.248;2022-07-10T00:45:09;1.45;;;1.35;;
13866;SDS011;7003;46.982;15.248;2022-07-10T00:47:37;1.35;;;1.25;;
13866;SDS011;7003;46.982;15.248;2022-07-10T00:50:05;2.53;;;1.20;;
13866;SDS011;7003;46.982;15.248;2022-07-10T00:52:34;5.95;;;2.10;;
13866;SDS011;7003;46.982;15.248;2022-07-10T00:55:04;4.65;;;1.88;;
13866;SDS011;7003;46.982;15.248;2022-07-10T00:57:32;1.77;;;1.58;;
13866;SDS011;7003;46.982;15.248;2022-07-10T01:00:00;2.28;;;2.08;;
13866;SDS011;7003;46.982;15.248;2022-07-10T01:02:28;1.08;;;1.02;;
13866;SDS011;7003;46.982;15.248;2022-07-10T01:05:00;1.85;;;1.70;;
13866;SDS011;7003;46.982;15.248;2022-07-10T01:07:30;4.07;;;1.95;;
13866;SDS011;7003;46.982;15.248;2022-07-10T01:10:03;2.13;;;1.92;;
13866;SDS011;7003;46.982;15.248;2022-07-10T01:12:35;1.98;;;1.73;;
13866;SDS011;7003;46.982;15.248;2022-07-10T01:15:03;2.58;;;1.58;;
13866;SDS011;7003;46.982;15.248;2022-07-10T01:17:34;1.55;;;1.30;;
13866;SDS011;7003;46.982;15.248;2022-07-10T01:20:04;2.85;;;1.70;;
13866;SDS011;7003;46.982;15.248;2022-07-10T01:22:34;1.83;;;1.70;;
13866;SDS011;7003;46.982;15.248;2022-07-10T01:25:03;1.95;;;1.85;;
13866;SDS011;7003;46.982;15.248;2022-07-10T01:27:33;1.55;;;1.45;;
13866;SDS011;7003;46.982;15.248;2022-07-10T01:30:00;1.45;;;1.35;;
13866;SDS011;7003;46.982;15.248;2022-07-10T01:32:30;1.38;;;1.27;;
13866;SDS011;7003;46.982;15.248;2022-07-10T01:35:06;2.10;;;1.70;;
13866;SDS011;7003;46.982;15.248;2022-07-10T01:37:35;1.83;;;1.67;;
13866;SDS011;7003;46.982;15.248;2022-07-10T01:40:06;1.42;;;1.30;;
13866;SDS011;7003;46.982;15.248;2022-07-10T01:42:34;1.85;;;1.73;;
13866;SDS011;7003;46.982;15.248;2022-07-10T01:45:04;1.48;;;1.38;;
13866;SDS011;7003;46.982;15.248;2022-07-10T01:47:32;1.65;;;1.50;;
13866;SDS011;7003;46.982;15.248;2022-07-10T01:50:00;2.15;;;1.77;;
13866;SDS011;7003;46.982;15.248;2022-07-10T01:52:30;1.75;;;1.65;;
13866;SDS011;7003;46.982;15.248;2022-07-10T01:55:00;2.28;;;1.65;;
13866;SDS011;7003;46.982;15.248;2022-07-10T01:57:31;1.52;;;1.42;;
13866;SDS011;7003;46.982;15.248;2022-07-10T01:59:58;1.58;;;1.48;;
13866;SDS011;7003;46.982;15.248;2022-07-10T02:02:28;1.90;;;1.20;;
13866;SDS011;7003;46.982;15.248;2022-07-10T02:04:58;2.00;;;1.80;;
13866;SDS011;7003;46.982;15.248;2022-07-10T02:07:24;2.78;;;1.50;;
13866;SDS011;7003;46.982;15.248;2022-07-10T02:09:52;6.75;;;2.00;;
13866;SDS011;7003;46.982;15.248;2022-07-10T02:12:23;2.20;;;2.00;;
13866;SDS011;7003;46.982;15.248;2022-07-10T02:14:53;3.25;;;2.47;;
13866;SDS011;7003;46.982;15.248;2022-07-10T02:17:27;2.90;;;1.45;;
13866;SDS011;7003;46.982;15.248;2022-07-10T02:19:56;3.40;;;1.95;;
13866;SDS011;7003;46.982;15.248;2022-07-10T02:22:23;1.60;;;1.50;;
13866;SDS011;7003;46.982;15.248;2022-07-10T02:24:51;3.47;;;1.63;;
13866;SDS011;7003;46.982;15.248;2022-07-10T02:27:18;2.40;;;1.83;;
13866;SDS011;7003;46.982;15.248;2022-07-10T02:29:47;1.80;;;1.70;;
13866;SDS011;7003;46.982;15.248;2022-07-10T02:32:16;1.77;;;1.67;;
13866;SDS011;7003;46.982;15.248;2022-07-10T02:34:43;1.73;;;1.63;;
13866;SDS011;7003;46.982;15.248;2022-07-10T02:37:13;1.67;;;1.58;;
13866;SDS011;7003;46.982;15.248;2022-07-10T02:39:40;1.77;;;1.67;;
13866;SDS011;7003;46.982;15.248;2022-07-10T02:42:07;18.73;;;1.98;;
13866;SDS011;7003;46.982;15.248;2022-07-10T02:44:34;1.58;;;1.48;;
13866;SDS011;7003;46.982;15.248;2022-07-10T02:47:11;1.70;;;1.38;;
13866;SDS011;7003;46.982;15.248;2022-07-10T02:49:41;1.40;;;1.27;;
13866;SDS011;7003;46.982;15.248;2022-07-10T02:52:09;2.10;;;1.88;;
13866;SDS011;7003;46.982;15.248;2022-07-10T02:54:39;2.70;;;2.00;;
13866;SDS011;7003;46.982;15.248;2022-07-10T02:57:06;1.75;;;1.63;;
13866;SDS011;7003;46.982;15.248;2022-07-10T02:59:36;1.52;;;1.42;;
13866;SDS011;7003;46.982;15.248;2022-07-10T03:02:06;1.33;;;1.23;;
13866;SDS011;7003;46.982;15.248;2022-07-10T03:04:35;2.08;;;1.35;;
13866;SDS011;7003;46.982;15.248;2022-07-10T03:07:05;1.60;;;1.50;;
13866;SDS011;7003;46.982;15.248;2022-07-10T03:09:32;3.10;;;1.70;;
13866;SDS011;7003;46.982;15.248;2022-07-10T03:12:02;5.20;;;2.00;;
13866;SDS011;7003;46.982;15.248;2022-07-10T03:14:30;3.50;;;1.75;;
13866;SDS011;7003;46.982;15.248;2022-07-10T03:16:57;3.75;;;2.08;;
13866;SDS011;7003;46.982;15.248;2022-07-10T03:19:25;1.20;;;1.10;;
13866;SDS011;7003;46.982;15.248;2022-07-10T03:21:54;1.75;;;1.40;;
13866;SDS011;7003;46.982;15.248;2022-07-10T03:24:21;1.90;;;1.80;;
13866;SDS011;7003;46.982;15.248;2022-07-10T03:26:49;1.95;;;1.77;;
13866;SDS011;7003;46.982;15.248;2022-07-10T03:29:16;2.42;;;1.90;;
13866;SDS011;7003;46.982;15.248;2022-07-10T03:31:46;1.42;;;1.33;;
13866;SDS011;7003;46.982;15.248;2022-07-10T03:34:15;1.98;;;1.30;;
13866;SDS011;7003;46.982;15.248;2022-07-10T03:36:43;2.40;;;2.10;;
13866;SDS011;7003;46.982;15.248;2022-07-10T03:39:12;2.50;;;2.20;;
13866;SDS011;7003;46.982;15.248;2022-07-10T03:41:42;5.90;;;1.30;;
13866;SDS011;7003;46.982;15.248;2022-07-10T03:44:09;2.47;;;2.28;;
13866;SDS011;7003;46.982;15.248;2022-07-10T03:46:39;1.80;;;1.70;;
13866;SDS011;7003;46.982;15.248;2022-07-10T03:49:07;1.83;;;1.65;;
13866;SDS011;7003;46.982;15.248;2022-07-10T03:51:37;2.72;;;2.15;;
13866;SDS011;7003;46.982;15.248;2022-07-10T03:54:05;1.55;;;1.45;;
13866;SDS011;7003;46.982;15.248;2022-07-10T03:56:34;1.77;;;1.67;;
13866;SDS011;7003;46.982;15.248;2022-07-10T03:59:24;2.15;;;2.05;;
13866;SDS011;7003;46.982;15.248;2022-07-10T04:01:55;1.85;;;1.75;;
13866;SDS011;7003;46.982;15.248;2022-07-10T04:04:23;2.22;;;2.05;;
13866;SDS011;7003;46.982;15.248;2022-07-10T04:06:51;1.70;;;1.60;;
13866;SDS011;7003;46.982;15.248;2022-07-10T04:09:19;1.95;;;1.77;;
13866;SDS011;7003;46.982;15.248;2022-07-10T04:11:50;2.17;;;1.98;;
13866;SDS011;7003;46.982;15.248;2022-07-10T04:14:18;9.60;;;2.42;;
13866;SDS011;7003;46.982;15.248;2022-07-10T04:16:46;2.45;;;2.00;;
13866;SDS011;7003;46.982;15.248;2022-07-10T04:19:14;1.85;;;1.75;;
13866;SDS011;7003;46.982;15.248;2022-07-10T04:21:42;2.05;;;1.85;;
13866;SDS011;7003;46.982;15.248;2022-07-10T04:24:10;2.67;;;2.47;;
13866;SDS011;7003;46.982;15.248;2022-07-10T04:26:41;7.35;;;2.03;;
13866;SDS011;7003;46.982;15.248;2022-07-10T04:29:13;8.82;;;2.25;;
13866;SDS011;7003;46.982;15.248;2022-07-10T04:31:43;3.05;;;2.10;;
13866;SDS011;7003;46.982;15.248;2022-07-10T04:34:13;3.97;;;2.97;;
13866;SDS011;7003;46.982;15.248;2022-07-10T04:36:41;2.50;;;2.30;;
13866;SDS011;7003;46.982;15.248;2022-07-10T04:39:09;2.30;;;2.20;;
13866;SDS011;7003;46.982;15.248;2022-07-10T04:41:36;2.33;;;2.13;;
13866;SDS011;7003;46.982;15.248;2022-07-10T04:44:04;2.97;;;2.55;;
13866;SDS011;7003;46.982;15.248;2022-07-10T04:46:33;1.88;;;1.77;;
13866;SDS011;7003;46.982;15.248;2022-07-10T04:49:01;2.45;;;2.25;;
13866;SDS011;7003;46.982;15.248;2022-07-10T04:51:29;3.28;;;2.75;;
13866;SDS011;7003;46.982;15.248;2022-07-10T04:53:57;2.00;;;1.90;;
13866;SDS011;7003;46.982;15.248;2022-07-10T04:56:27;3.15;;;2.20;;
13866;SDS011;7003;46.982;15.248;2022-07-10T04:58:57;2.55;;;2.35;;
13866;SDS011;7003;46.982;15.248;2022-07-10T05:01:25;3.08;;;2.88;;
13866;SDS011;7003;46.982;15.248;2022-07-10T05:03:55;2.08;;;1.70;;
13866;SDS011;7003;46.982;15.248;2022-07-10T05:06:23;1.80;;;1.70;;
13866;SDS011;7003;46.982;15.248;2022-07-10T05:08:53;2.00;;;1.90;;
13866;SDS011;7003;46.982;15.248;2022-07-10T05:11:21;10.35;;;2.45;;
13866;SDS011;7003;46.982;15.248;2022-07-10T05:13:51;4.55;;;2.95;;
13866;SDS011;7003;46.982;15.248;2022-07-10T05:16:19;3.58;;;3.17;;
13866;SDS011;7003;46.982;15.248;2022-07-10T05:18:50;2.35;;;2.10;;
13866;SDS011;7003;46.982;15.248;2022-07-10T05:21:21;1.83;;;1.73;;
13866;SDS011;7003;46.982;15.248;2022-07-10T05:23:51;2.13;;;1.92;;
13866;SDS011;7003;46.982;15.248;2022-07-10T05:26:19;1.90;;;1.80;;
13866;SDS011;7003;46.982;15.248;2022-07-10T05:28:48;2.30;;;2.13;;
13866;SDS011;7003;46.982;15.248;2022-07-10T05:31:16;2.35;;;2.15;;
13866;SDS011;7003;46.982;15.248;2022-07-10T05:33:44;1.98;;;1.88;;
13866;SDS011;7003;46.982;15.248;2022-07-10T05:36:14;2.28;;;2.08;;
13866;SDS011;7003;46.982;15.248;2022-07-10T05:38:44;2.88;;;2.47;;
13866;SDS011;7003;46.982;15.248;2022-07-10T05:41:12;2.22;;;2.13;;
13866;SDS011;7003;46.982;15.248;2022-07-10T05:43:41;3.45;;;2.95;;
13866;SDS011;7003;46.982;15.248;2022-07-10T05:46:11;2.90;;;2.53;;
13866;SDS011;7003;46.982;15.248;2022-07-10T05:48:39;3.40;;;3.10;;
13866;SDS011;7003;46.982;15.248;2022-07-10T05:51:07;2.83;;;2.63;;
13866;SDS011;7003;46.982;15.248;2022-07-10T05:53:35;2.78;;;2.58;;
13866;SDS011;7003;46.982;15.248;2022-07-10T05:56:05;2.50;;;2.30;;
13866;SDS011;7003;46.982;15.248;2022-07-10T05:58:35;2.58;;;2.22;;
13866;SDS011;7003;46.982;15.248;2022-07-10T06:01:05;3.20;;;2.13;;
13866;SDS011;7003;46.982;15.248;2022-07-10T06:03:33;2.38;;;2.17;;
13866;SDS011;7003;46.982;15.248;2022-07-10T06:06:03;2.25;;;2.05;;
13866;SDS011;7003;46.982;15.248;2022-07-10T06:08:31;2.75;;;2.55;;
13866;SDS011;7003;46.982;15.248;2022-07-10T06:11:02;2.80;;;2.60;;
13866;SDS011;7003;46.982;15.248;2022-07-10T06:13:31;2.70;;;2.50;;
13866;SDS011;7003;46.982;15.248;2022-07-10T06:15:59;10.82;;;3.08;;
13866;SDS011;7003;46.982;15.248;2022-07-10T06:18:29;2.92;;;2.58;;
13866;SDS011;7003;46.982;15.248;2022-07-10T06:20:58;4.00;;;2.67;;
13866;SDS011;7003;46.982;15.248;2022-07-10T06:23:25;3.60;;;3.30;;
13866;SDS011;7003;46.982;15.248;2022-07-10T06:25:53;2.90;;;2.70;;
13866;SDS011;7003;46.982;15.248;2022-07-10T06:28:24;6.65;;;2.78;;
13866;SDS011;7003;46.982;15.248;2022-07-10T06:30:56;3.28;;;2.95;;
13866;SDS011;7003;46.982;15.248;2022-07-10T06:33:26;3.53;;;3.25;;
13866;SDS011;7003;46.982;15.248;2022-07-10T06:35:56;2.72;;;2.53;;
13866;SDS011;7003;46.982;15.248;2022-07-10T06:38:24;2.72;;;2.47;;
13866;SDS011;7003;46.982;15.248;2022-07-10T06:40:53;3.13;;;2.55;;
13866;SDS011;7003;46.982;15.248;2022-07-10T06:43:21;3.15;;;2.85;;
13866;SDS011;7003;46.982;15.248;2022-07-10T06:45:49;3.30;;;3.00;;
13866;SDS011;7003;46.982;15.248;2022-07-10T06:48:18;2.70;;;2.50;;
13866;SDS011;7003;46.982;15.248;2022-07-10T06:50:48;3.90;;;2.67;;
13866;SDS011;7003;46.982;15.248;2022-07-10T06:53:16;2.95;;;2.63;;
13866;SDS011;7003;46.982;15.248;2022-07-10T06:55:51;2.70;;;2.50;;
13866;SDS011;7003;46.982;15.248;2022-07-10T06:58:20;2.95;;;2.72;;
13866;SDS011;7003;46.982;15.248;2022-07-10T07:00:48;4.60;;;3.10;;
13866;SDS011;7003;46.982;15.248;2022-07-10T07:03:20;2.88;;;2.58;;
13866;SDS011;7003;46.982;15.248;2022-07-10T07:05:50;4.00;;;2.90;;
13866;SDS011;7003;46.982;15.248;2022-07-10T07:08:19;3.45;;;3.15;;
13866;SDS011;7003;46.982;15.248;2022-07-10T07:10:49;3.72;;;2.97;;
13866;SDS011;7003;46.982;15.248;2022-07-10T07:13:19;2.95;;;2.72;;
13866;SDS011;7003;46.982;15.248;2022-07-10T07:15:50;3.78;;;2.97;;
13866;SDS011;7003;46.982;15.248;2022-07-10T07:18:25;6.35;;;3.00;;
13866;SDS011;7003;46.982;15.248;2022-07-10T07:21:01;3.22;;;2.95;;
13866;SDS011;7003;46.982;15.248;2022-07-10T07:23:49;5.50;;;3.72;;
13866;SDS011;7003;46.982;15.248;2022-07-10T07:26:17;4.30;;;3.78;;
13866;SDS011;7003;46.982;15.248;2022-07-10T07:28:44;3.97;;;3.60;;
13866;SDS011;7003;46.982;15.248;2022-07-10T07:31:12;3.45;;;2.45;;
13866;SDS011;7003;46.982;15.248;2022-07-10T07:33:45;3.00;;;2.80;;
13866;SDS011;7003;46.982;15.248;2022-07-10T07:36:13;3.50;;;3.15;;
13866;SDS011;7003;46.982;15.248;2022-07-10T07:38:41;3.47;;;3.00;;
13866;SDS011;7003;46.982;15.248;2022-07-10T07:41:11;2.35;;;2.15;;
13866;SDS011;7003;46.982;15.248;2022-07-10T07:43:41;3.05;;;2.85;;
13866;SDS011;7003;46.982;15.248;2022-07-10T07:46:12;2.55;;;2.35;;
13866;SDS011;7003;46.982;15.248;2022-07-10T07:48:39;2.90;;;2.10;;
13866;SDS011;7003;46.982;15.248;2022-07-10T07:51:12;3.38;;;3.08;;
13866;SDS011;7003;46.982;15.248;2022-07-10T07:53:42;3.92;;;2.40;;
13866;SDS011;7003;46.982;15.248;2022-07-10T07:56:13;2.08;;;1.98;;
13866;SDS011;7003;46.982;15.248;2022-07-10T07:58:44;2.80;;;2.60;;
13866;SDS011;7003;46.982;15.248;2022-07-10T08:01:14;3.42;;;2.35;;
13866;SDS011;7003;46.982;15.248;2022-07-10T08:03:42;2.63;;;2.42;;
13866;SDS011;7003;46.982;15.248;2022-07-10T08:06:13;1.88;;;1.77;;
13866;SDS011;7003;46.982;15.248;2022-07-10T08:08:43;2.38;;;2.17;;
13866;SDS011;7003;46.982;15.248;2022-07-10T08:11:13;2.65;;;2.00;;
13866;SDS011;7003;46.982;15.248;2022-07-10T08:13:41;2.55;;;2.38;;
13866;SDS011;7003;46.982;15.248;2022-07-10T08:16:10;2.10;;;2.00;;
13866;SDS011;7003;46.982;15.248;2022-07-10T08:18:40;2.53;;;2.33;;
13866;SDS011;7003;46.982;15.248;2022-07-10T08:21:08;6.97;;;2.67;;
13866;SDS011;7003;46.982;15.248;2022-07-10T08:23:39;1.85;;;1.75;;
13866;SDS011;7003;46.982;15.248;2022-07-10T08:26:09;2.25;;;2.05;;
13866;SDS011;7003;46.982;15.248;2022-07-10T08:28:39;4.00;;;2.72;;
13866;SDS011;7003;46.982;15.248;2022-07-10T08:31:10;1.85;;;1.75;;
13866;SDS011;7003;46.982;15.248;2022-07-10T08:33:40;1.73;;;1.63;;
13866;SDS011;7003;46.982;15.248;2022-07-10T08:36:08;1.60;;;1.50;;
13866;SDS011;7003;46.982;15.248;2022-07-10T08:38:39;2.33;;;2.13;;
13866;SDS011;7003;46.982;15.248;2022-07-10T08:41:07;2.10;;;1.90;;
13866;SDS011;7003;46.982;15.248;2022-07-10T08:43:38;2.28;;;2.10;;
13866;SDS011;7003;46.982;15.248;2022-07-10T08:46:10;2.35;;;1.58;;
13866;SDS011;7003;46.982;15.248;2022-07-10T08:48:39;1.67;;;1.58;;
13866;SDS011;7003;46.982;15.248;2022-07-10T08:51:11;1.73;;;1.63;;
13866;SDS011;7003;46.982;15.248;2022-07-10T08:53:50;1.55;;;1.45;;
13866;SDS011;7003;46.982;15.248;2022-07-10T08:56:21;2.72;;;1.55;;
13866;SDS011;7003;46.982;15.248;2022-07-10T08:58:51;1.55;;;1.45;;
13866;SDS011;7003;46.982;15.248;2022-07-10T09:01:23;3.03;;;2.03;;
13866;SDS011;7003;46.982;15.248;2022-07-10T09:03:53;1.33;;;1.27;;
13866;SDS011;7003;46.982;15.248;2022-07-10T09:06:23;1.77;;;1.67;;
13866;SDS011;7003;46.982;15.248;2022-07-10T09:08:59;7.18;;;2.25;;
13866;SDS011;7003;46.982;15.248;2022-07-10T09:11:30;1.35;;;1.25;;
13866;SDS011;7003;46.982;15.248;2022-07-10T09:14:03;1.92;;;1.83;;
13866;SDS011;7003;46.982;15.248;2022-07-10T09:16:34;1.42;;;1.33;;
13866;SDS011;7003;46.982;15.248;2022-07-10T09:19:14;1.17;;;1.08;;
13866;SDS011;7003;46.982;15.248;2022-07-10T09:21:44;2.33;;;1.88;;
13866;SDS011;7003;46.982;15.248;2022-07-10T09:24:14;1.73;;;1.50;;
13866;SDS011;7003;46.982;15.248;2022-07-10T09:26:57;2.60;;;2.17;;
13866;SDS011;7003;46.982;15.248;2022-07-10T09:29:31;1.67;;;1.58;;
13866;SDS011;7003;46.982;15.248;2022-07-10T09:32:00;1.58;;;1.48;;
13866;SDS011;7003;46.982;15.248;2022-07-10T09:34:35;2.17;;;1.75;;
13866;SDS011;7003;46.982;15.248;2022-07-10T09:37:19;0.95;;;0.95;;
13866;SDS011;7003;46.982;15.248;2022-07-10T09:39:55;1.80;;;1.50;;
13866;SDS011;7003;46.982;15.248;2022-07-10T09:42:31;1.52;;;1.42;;
13866;SDS011;7003;46.982;15.248;2022-07-10T09:45:12;5.65;;;1.83;;
13866;SDS011;7003;46.982;15.248;2022-07-10T09:47:45;1.52;;;1.42;;
13866;SDS011;7003;46.982;15.248;2022-07-10T09:50:21;1.52;;;1.35;;
13866;SDS011;7003;46.982;15.248;2022-07-10T09:52:51;2.00;;;1.90;;
13866;SDS011;7003;46.982;15.248;2022-07-10T09:55:22;2.42;;;1.13;;
13866;SDS011;7003;46.982;15.248;2022-07-10T09:57:53;1.92;;;1.50;;
13866;SDS011;7003;46.982;15.248;2022-07-10T10:00:26;1.63;;;1.30;;
13866;SDS011;7003;46.982;15.248;2022-07-10T10:03:00;2.28;;;1.63;;
13866;SDS011;7003;46.982;15.248;2022-07-10T10:05:33;2.15;;;1.13;;
13866;SDS011;7003;46.982;15.248;2022-07-10T10:08:11;1.50;;;1.40;;
13866;SDS011;7003;46.982;15.248;2022-07-10T10:10:45;1.40;;;1.30;;
13866;SDS011;7003;46.982;15.248;2022-07-10T10:13:15;2.42;;;1.83;;
13866;SDS011;7003;46.982;15.248;2022-07-10T10:15:46;1.30;;;1.20;;
13866;SDS011;7003;46.982;15.248;2022-07-10T10:18:19;1.30;;;1.20;;
13866;SDS011;7003;46.982;15.248;2022-07-10T10:20:49;1.48;;;1.38;;
13866;SDS011;7003;46.982;15.248;2022-07-10T10:23:20;1.65;;;1.55;;
13866;SDS011;7003;46.982;15.248;2022-07-10T10:25:56;2.00;;;1.90;;
13866;SDS011;7003;46.982;15.248;2022-07-10T10:28:24;1.75;;;1.42;;
13866;SDS011;7003;46.982;15.248;2022-07-10T10:30:53;1.63;;;1.52;;
13866;SDS011;7003;46.982;15.248;2022-07-10T10:33:43;1.60;;;1.50;;
13866;SDS011;7003;46.982;15.248;2022-07-10T10:39:11;1.50;;;1.40;;
13866;SDS011;7003;46.982;15.248;2022-07-10T10:41:42;1.52;;;1.42;;
13866;SDS011;7003;46.982;15.248;2022-07-10T10:44:23;1.42;;;1.33;;
13866;SDS011;7003;46.982;15.248;2022-07-10T10:47:05;1.58;;;1.48;;
13866;SDS011;7003;46.982;15.248;2022-07-10T10:52:28;1.48;;;1.38;;
13866;SDS011;7003;46.982;15.248;2022-07-10T10:54:59;2.42;;;1.88;;
13866;SDS011;7003;46.982;15.248;2022-07-10T10:57:38;1.20;;;1.10;;
13866;SDS011;7003;46.982;15.248;2022-07-10T11:00:13;1.33;;;1.23;;
13866;SDS011;7003;46.982;15.248;2022-07-10T11:03:11;1.45;;;1.35;;
13866;SDS011;7003;46.982;15.248;2022-07-10T11:05:50;1.35;;;1.25;;
13866;SDS011;7003;46.982;15.248;2022-07-10T11:08:37;1.17;;;1.17;;
13866;SDS011;7003;46.982;15.248;2022-07-10T11:14:11;1.85;;;1.67;;
13866;SDS011;7003;46.982;15.248;2022-07-10T11:16:47;1.85;;;1.75;;
13866;SDS011;7003;46.982;15.248;2022-07-10T11:19:21;1.77;;;1.17;;
13866;SDS011;7003;46.982;15.248;2022-07-10T11:21:56;2.47;;;2.00;;
13866;SDS011;7003;46.982;15.248;2022-07-10T11:24:45;2.28;;;1.10;;
13866;SDS011;7003;46.982;15.248;2022-07-10T11:27:28;2.45;;;1.48;;
13866;SDS011;7003;46.982;15.248;2022-07-10T11:30:08;1.20;;;1.10;;
13866;SDS011;7003;46.982;15.248;2022-07-10T11:32:37;1.83;;;1.73;;
13866;SDS011;7003;46.982;15.248;2022-07-10T11:35:10;1.48;;;1.38;;
13866;SDS011;7003;46.982;15.248;2022-07-10T11:37:52;1.77;;;1.67;;
13866;SDS011;7003;46.982;15.248;2022-07-10T11:40:21;2.92;;;2.00;;
13866;SDS011;7003;46.982;15.248;2022-07-10T11:42:51;1.60;;;1.50;;
13866;SDS011;7003;46.982;15.248;2022-07-10T11:45:28;1.83;;;1.60;;
13866;SDS011;7003;46.982;15.248;2022-07-10T11:47:59;1.70;;;1.60;;
13866;SDS011;7003;46.982;15.248;2022-07-10T11:50:34;1.80;;;1.55;;
13866;SDS011;7003;46.982;15.248;2022-07-10T11:53:05;1.40;;;1.30;;
13866;SDS011;7003;46.982;15.248;2022-07-10T11:55:36;1.63;;;1.38;;
13866;SDS011;7003;46.982;15.248;2022-07-10T11:58:13;1.10;;;1.10;;
13866;SDS011;7003;46.982;15.248;2022-07-10T12:00:45;1.73;;;1.60;;
13866;SDS011;7003;46.982;15.248;2022-07-10T12:03:27;2.90;;;1.70;;
13866;SDS011;7003;46.982;15.248;2022-07-10T12:05:55;1.27;;;1.17;;
13866;SDS011;7003;46.982;15.248;2022-07-10T12:08:29;1.98;;;1.77;;
13866;SDS011;7003;46.982;15.248;2022-07-10T12:10:57;1.40;;;1.30;;
13866;SDS011;7003;46.982;15.248;2022-07-10T12:13:27;1.15;;;1.15;;
13866;SDS011;7003;46.982;15.248;2022-07-10T12:15:56;1.90;;;1.80;;
13866;SDS011;7003;46.982;15.248;2022-07-10T12:18:27;1.98;;;1.00;;
13866;SDS011;7003;46.982;15.248;2022-07-10T12:20:57;1.15;;;1.00;;
13866;SDS011;7003;46.982;15.248;2022-07-10T12:23:29;1.40;;;1.30;;
13866;SDS011;7003;46.982;15.248;2022-07-10T12:25:58;1.30;;;1.20;;
13866;SDS011;7003;46.982;15.248;2022-07-10T12:28:27;1.45;;;1.35;;
13866;SDS011;7003;46.982;15.248;2022-07-10T12:30:57;1.67;;;1.58;;
13866;SDS011;7003;46.982;15.248;2022-07-10T12:33:25;1.35;;;1.25;;
13866;SDS011;7003;46.982;15.248;2022-07-10T12:35:56;1.40;;;1.30;;
13866;SDS011;7003;46.982;15.248;2022-07-10T12:38:27;2.22;;;2.03;;
13866;SDS011;7003;46.982;15.248;2022-07-10T12:41:06;1.83;;;1.70;;
13866;SDS011;7003;46.982;15.248;2022-07-10T12:43:38;2.05;;;1.80;;
13866;SDS011;7003;46.982;15.248;2022-07-10T12:46:12;1.67;;;1.58;;
13866;SDS011;7003;46.982;15.248;2022-07-10T12:48:42;2.83;;;1.65;;
13866;SDS011;7003;46.982;15.248;2022-07-10T12:51:24;4.82;;;1.85;;
13866;SDS011;7003;46.982;15.248;2022-07-10T12:53:54;1.50;;;1.40;;
13866;SDS011;7003;46.982;15.248;2022-07-10T12:56:26;1.60;;;1.50;;
13866;SDS011;7003;46.982;15.248;2022-07-10T12:59:01;2.47;;;2.28;;
13866;SDS011;7003;46.982;15.248;2022-07-10T13:01:40;1.85;;;1.67;;
13866;SDS011;7003;46.982;15.248;2022-07-10T13:04:11;1.48;;;1.38;;
13866;SDS011;7003;46.982;15.248;2022-07-10T13:06:40;1.90;;;1.63;;
13866;SDS011;7003;46.982;15.248;2022-07-10T13:09:18;1.17;;;1.15;;
13866;SDS011;7003;46.982;15.248;2022-07-10T13:11:47;1.73;;;1.63;;
13866;SDS011;7003;46.982;15.248;2022-07-10T13:14:16;1.88;;;1.60;;
13866;SDS011;7003;46.982;15.248;2022-07-10T13:16:45;1.75;;;1.65;;
13866;SDS011;7003;46.982;15.248;2022-07-10T13:19:13;1.45;;;1.33;;
13866;SDS011;7003;46.982;15.248;2022-07-10T13:21:44;3.47;;;1.92;;
13866;SDS011;7003;46.982;15.248;2022-07-10T13:24:11;1.30;;;1.20;;
13866;SDS011;7003;46.982;15.248;2022-07-10T13:26:42;1.45;;;1.35;;
13866;SDS011;7003;46.982;15.248;2022-07-10T13:29:12;1.67;;;1.30;;
13866;SDS011;7003;46.982;15.248;2022-07-10T13:31:40;1.17;;;1.15;;
13866;SDS011;7003;46.982;15.248;2022-07-10T13:34:13;1.52;;;1.42;;
13866;SDS011;7003;46.982;15.248;2022-07-10T13:36:40;1.90;;;1.55;;
13866;SDS011;7003;46.982;15.248;2022-07-10T13:39:08;1.63;;;1.40;;
13866;SDS011;7003;46.982;15.248;2022-07-10T13:41:36;1.83;;;1.45;;
13866;SDS011;7003;46.982;15.248;2022-07-10T13:44:04;1.38;;;1.27;;
13866;SDS011;7003;46.982;15.248;2022-07-10T13:46:32;1.05;;;0.98;;
13866;SDS011;7003;46.982;15.248;2022-07-10T13:49:00;1.30;;;1.20;;
13866;SDS011;7003;46.982;15.248;2022-07-10T13:51:33;2.03;;;1.85;;
13866;SDS011;7003;46.982;15.248;2022-07-10T13:54:01;2.30;;;1.70;;
13866;SDS011;7003;46.982;15.248;2022-07-10T13:56:30;1.58;;;1.48;;
13866;SDS011;7003;46.982;15.248;2022-07-10T13:58:58;1.40;;;1.30;;
13866;SDS011;7003;46.982;15.248;2022-07-10T14:01:28;3.13;;;1.27;;
13866;SDS011;7003;46.982;15.248;2022-07-10T14:03:56;2.80;;;1.98;;
13866;SDS011;7003;46.982;15.248;2022-07-10T14:06:24;1.77;;;1.35;;
13866;SDS011;7003;46.982;15.248;2022-07-10T14:08:56;1.55;;;1.45;;
13866;SDS011;7003;46.982;15.248;2022-07-10T14:11:24;3.08;;;0.93;;
13866;SDS011;7003;46.982;15.248;2022-07-10T14:13:55;1.27;;;1.17;;
13866;SDS011;7003;46.982;15.248;2022-07-10T14:16:26;1.75;;;1.63;;
13866;SDS011;7003;46.982;15.248;2022-07-10T14:18:54;1.67;;;1.20;;
13866;SDS011;7003;46.982;15.248;2022-07-10T14:21:24;1.75;;;1.65;;
13866;SDS011;7003;46.982;15.248;2022-07-10T14:23:53;2.03;;;1.25;;
13866;SDS011;7003;46.982;15.248;2022-07-10T14:26:25;1.45;;;1.35;;
13866;SDS011;7003;46.982;15.248;2022-07-10T14:28:56;0.90;;;0.90;;
13866;SDS011;7003;46.982;15.248;2022-07-10T14:31:24;1.35;;;1.25;;
13866;SDS011;7003;46.982;15.248;2022-07-10T14:33:52;1.23;;;1.20;;
13866;SDS011;7003;46.982;15.248;2022-07-10T14:36:19;1.52;;;1.42;;
13866;SDS011;7003;46.982;15.248;2022-07-10T14:38:48;1.33;;;1.23;;
13866;SDS011;7003;46.982;15.248;2022-07-10T14:41:19;1.98;;;1.13;;
13866;SDS011;7003;46.982;15.248;2022-07-10T14:43:49;1.95;;;1.45;;
13866;SDS011;7003;46.982;15.248;2022-07-10T14:46:17;1.50;;;1.40;;
13866;SDS011;7003;46.982;15.248;2022-07-10T14:48:45;1.20;;;1.10;;
13866;SDS011;7003;46.982;15.248;2022-07-10T14:51:16;1.23;;;1.13;;
13866;SDS011;7003;46.982;15.248;2022-07-10T14:54:02;5.28;;;1.10;;
13866;SDS011;7003;46.982;15.248;2022-07-10T14:56:30;1.55;;;1.38;;
13866;SDS011;7003;46.982;15.248;2022-07-10T14:59:02;1.30;;;1.20;;
13866;SDS011;7003;46.982;15.248;2022-07-10T15:01:32;1.67;;;1.40;;
13866;SDS011;7003;46.982;15.248;2022-07-10T15:04:02;1.70;;;1.60;;
13866;SDS011;7003;46.982;15.248;2022-07-10T15:06:33;1.45;;;1.35;;
13866;SDS011;7003;46.982;15.248;2022-07-10T15:09:01;1.48;;;1.38;;
13866;SDS011;7003;46.982;15.248;2022-07-10T15:11:31;1.52;;;1.42;;
13866;SDS011;7003;46.982;15.248;2022-07-10T15:14:03;1.65;;;1.42;;
13866;SDS011;7003;46.982;15.248;2022-07-10T15:16:31;1.48;;;1.38;;